createdAt,value
2019-04-07T00:00:09.252Z,21.63
2019-04-07T00:02:40.779Z,21.10
2019-04-07T00:05:14.717Z,22.47
2019-04-07T00:07:45.877Z,21.60
2019-04-07T00:10:17.204Z,21.60
2019-04-07T00:12:48.525Z,21.50
2019-04-07T00:15:19.854Z,22.33
2019-04-07T00:17:51.026Z,22.13
2019-04-07T00:20:22.398Z,22.17
2019-04-07T00:22:55.140Z,21.70
2019-04-07T00:25:26.556Z,23.57
2019-04-07T00:27:58.545Z,22.87
2019-04-07T00:30:30.332Z,21.20
2019-04-07T00:33:01.951Z,21.37
2019-04-07T00:35:33.661Z,22.73
2019-04-07T00:38:04.949Z,22.53
2019-04-07T00:40:37.088Z,24.43
2019-04-07T00:43:08.803Z,24.43
2019-04-07T00:45:40.557Z,23.97
2019-04-07T00:48:12.292Z,23.03
2019-04-07T00:50:43.746Z,22.57
2019-04-07T00:53:15.618Z,22.40
2019-04-07T00:55:47.568Z,23.03
2019-04-07T00:58:19.179Z,23.57
2019-04-07T01:00:50.617Z,24.70
2019-04-07T01:03:22.647Z,22.37
2019-04-07T01:05:54.455Z,23.07
2019-04-07T01:08:26.003Z,23.27
2019-04-07T01:10:57.997Z,21.70
2019-04-07T01:13:29.837Z,21.03
2019-04-07T01:16:01.375Z,20.73
2019-04-07T01:18:35.491Z,21.10
2019-04-07T01:21:07.371Z,21.10
2019-04-07T01:23:38.958Z,22.23
2019-04-07T01:26:10.545Z,22.17
2019-04-07T01:28:42.954Z,22.70
2019-04-07T01:31:14.521Z,22.10
2019-04-07T01:33:45.938Z,21.03
2019-04-07T01:36:18.479Z,21.47
2019-04-07T01:38:49.725Z,20.97
2019-04-07T01:41:32.918Z,22.03
2019-04-07T01:44:15.743Z,21.90
2019-04-07T01:47:04.687Z,21.43
2019-04-07T01:49:54.074Z,20.80
2019-04-07T01:52:33.969Z,21.57
2019-04-07T01:55:23.556Z,21.10
2019-04-07T01:58:06.515Z,21.57
2019-04-07T02:00:55.602Z,20.17
2019-04-07T02:03:47.452Z,22.10
2019-04-07T02:06:40.964Z,21.37
2019-04-07T02:09:31.632Z,20.17
2019-04-07T02:12:21.020Z,20.90
2019-04-07T02:15:15.084Z,22.63
2019-04-07T02:17:54.882Z,25.90
2019-04-07T02:21:05.516Z,21.17
2019-04-07T02:23:54.852Z,21.87
2019-04-07T02:26:43.340Z,21.63
2019-04-07T02:29:30.854Z,19.87
2019-04-07T02:32:24.637Z,21.10
2019-04-07T02:35:09.950Z,21.73
2019-04-07T02:37:52.986Z,21.23
2019-04-07T02:40:38.364Z,20.63
2019-04-07T02:43:32.696Z,22.85
2019-04-07T02:46:21.947Z,22.17
2019-04-07T02:49:05.927Z,21.90
2019-04-07T02:52:00.841Z,21.50
2019-04-07T02:54:38.628Z,19.87
2019-04-07T02:57:19.752Z,20.20
2019-04-07T03:00:01.142Z,20.17
2019-04-07T03:02:47.644Z,20.90
2019-04-07T03:05:36.137Z,20.00
2019-04-07T03:08:27.005Z,19.70
2019-04-07T03:11:24.763Z,20.80
2019-04-07T03:14:03.635Z,19.80
2019-04-07T03:16:43.765Z,20.13
2019-04-07T03:19:46.732Z,19.17
2019-04-07T03:22:32.386Z,19.17
2019-04-07T03:25:17.347Z,18.70
2019-04-07T03:28:04.699Z,21.27
2019-04-07T03:30:51.931Z,19.83
2019-04-07T03:33:48.249Z,19.83
2019-04-07T03:37:08.947Z,19.87
2019-04-07T03:39:49.986Z,20.30
2019-04-07T03:42:41.932Z,19.83
2019-04-07T03:45:38.370Z,20.00
2019-04-07T03:48:24.603Z,19.40
2019-04-07T03:51:15.177Z,20.60
2019-04-07T03:54:01.469Z,19.90
2019-04-07T03:56:56.577Z,19.37
2019-04-07T03:59:47.010Z,20.70
2019-04-07T04:02:41.121Z,22.40
2019-04-07T04:05:37.983Z,21.87
2019-04-07T04:08:24.499Z,22.13
2019-04-07T04:11:18.191Z,19.47
2019-04-07T04:13:59.989Z,19.93
2019-04-07T04:16:36.536Z,21.90
2019-04-07T04:19:08.311Z,22.60
2019-04-07T04:21:40.373Z,24.57
2019-04-07T04:24:12.261Z,26.60
2019-04-07T04:26:44.100Z,23.90
2019-04-07T04:29:15.672Z,24.33
2019-04-07T04:31:47.572Z,22.87
2019-04-07T04:34:19.163Z,25.93
2019-04-07T04:36:50.674Z,25.00
2019-04-07T04:39:22.896Z,23.80
2019-04-07T04:41:55.597Z,26.90
2019-04-07T04:44:27.167Z,22.57
2019-04-07T04:46:58.507Z,23.37
2019-04-07T04:49:29.560Z,23.13
2019-04-07T04:52:01.082Z,22.63
2019-04-07T04:54:33.279Z,21.53
2019-04-07T04:57:07.688Z,23.50
2019-04-07T04:59:37.980Z,25.33
2019-04-07T05:02:10.586Z,24.03
2019-04-07T05:04:41.980Z,25.53
2019-04-07T05:07:13.498Z,25.77
2019-04-07T05:09:49.968Z,25.40
2019-04-07T05:12:17.578Z,26.43
2019-04-07T05:14:50.324Z,27.43
2019-04-07T05:17:21.940Z,27.07
2019-04-07T05:19:53.394Z,25.53
2019-04-07T05:22:25.106Z,25.37
2019-04-07T05:24:57.585Z,24.50
2019-04-07T05:27:29.345Z,23.13
2019-04-07T05:30:01.129Z,21.43
2019-04-07T05:32:32.378Z,22.67
2019-04-07T05:35:04.406Z,21.30
2019-04-07T05:37:35.727Z,20.60
2019-04-07T05:40:07.439Z,21.50
2019-04-07T05:42:38.964Z,22.23
2019-04-07T05:45:11.429Z,22.00
2019-04-07T05:47:47.303Z,21.83
2019-04-07T05:50:16.640Z,22.90
2019-04-07T05:52:48.837Z,21.37
2019-04-07T05:55:21.801Z,23.07
2019-04-07T05:57:54.212Z,23.23
2019-04-07T06:00:26.029Z,20.87
2019-04-07T06:02:57.182Z,21.27
2019-04-07T06:05:29.036Z,21.03
2019-04-07T06:08:06.292Z,19.83
2019-04-07T06:10:33.751Z,20.03
2019-04-07T06:13:05.334Z,21.23
2019-04-07T06:15:36.616Z,20.40
2019-04-07T06:18:08.348Z,21.10
2019-04-07T06:20:39.576Z,19.87
2019-04-07T06:23:10.719Z,20.53
2019-04-07T06:25:43.563Z,21.13
2019-04-07T06:28:17.233Z,21.90
2019-04-07T06:30:48.312Z,21.90
2019-04-07T06:33:20.829Z,22.40
2019-04-07T06:35:54.289Z,22.83
2019-04-07T06:38:33.695Z,21.63
2019-04-07T06:41:01.171Z,22.70
2019-04-07T06:43:35.140Z,22.97
2019-04-07T06:46:17.772Z,24.30
2019-04-07T06:49:17.493Z,26.13
2019-04-07T06:52:03.620Z,28.20
2019-04-07T06:54:39.878Z,27.60
2019-04-07T06:57:28.636Z,27.40
2019-04-07T07:00:11.129Z,28.63
2019-04-07T07:03:04.096Z,29.63
2019-04-07T07:05:54.264Z,27.87
2019-04-07T07:08:45.830Z,30.73
2019-04-07T07:11:34.682Z,29.00
2019-04-07T07:14:14.352Z,29.13
2019-04-07T07:16:54.156Z,28.97
2019-04-07T07:19:44.623Z,29.87
2019-04-07T07:22:18.644Z,28.47
2019-04-07T07:24:50.355Z,25.10
2019-04-07T07:27:21.801Z,25.50
2019-04-07T07:29:53.931Z,26.73
2019-04-07T07:32:26.874Z,25.88
2019-04-07T07:34:58.713Z,26.02
2019-04-07T07:37:30.155Z,26.33
2019-04-07T07:40:01.916Z,25.85
2019-04-07T07:42:33.596Z,25.60
2019-04-07T07:45:08.104Z,24.72
2019-04-07T07:47:38.407Z,27.98
2019-04-07T07:50:11.331Z,27.05
2019-04-07T07:52:43.179Z,26.70
2019-04-07T07:55:15.096Z,26.75
2019-04-07T07:57:46.921Z,26.48
2019-04-07T08:00:18.865Z,25.48
2019-04-07T08:02:52.492Z,26.75
2019-04-07T08:05:23.885Z,26.02
2019-04-07T08:07:56.115Z,25.02
2019-04-07T08:10:27.708Z,24.57
2019-04-07T08:12:59.664Z,26.00
2019-04-07T08:15:33.147Z,27.07
2019-04-07T08:18:07.032Z,25.77
2019-04-07T08:20:37.421Z,24.37
2019-04-07T08:23:11.810Z,25.40
2019-04-07T08:25:42.530Z,23.65
2019-04-07T08:28:14.640Z,20.23
2019-04-07T08:30:47.579Z,21.62
2019-04-07T08:33:18.980Z,20.52
2019-04-07T08:35:50.242Z,18.50
2019-04-07T08:38:25.332Z,20.00
2019-04-07T08:40:55.205Z,16.82
2019-04-07T08:43:26.561Z,17.55
2019-04-07T08:45:58.005Z,16.73
2019-04-07T08:48:30.595Z,15.65
2019-04-07T08:51:02.617Z,14.83
2019-04-07T08:53:34.209Z,15.90
2019-04-07T08:56:07.591Z,14.23
2019-04-07T08:58:40.128Z,14.30
2019-04-07T09:01:12.158Z,13.65
2019-04-07T09:03:45.499Z,12.93
2019-04-07T09:06:18.493Z,13.00
2019-04-07T09:08:50.131Z,13.00
2019-04-07T09:11:23.694Z,13.68
2019-04-07T09:13:57.020Z,14.05
2019-04-07T09:16:56.094Z,11.43
2019-04-07T09:19:44.327Z,9.40
2019-04-07T09:22:34.721Z,13.45
2019-04-07T09:25:27.203Z,9.78
2019-04-07T09:28:05.298Z,8.65
2019-04-07T09:30:56.309Z,10.50
2019-04-07T09:33:48.929Z,14.98
2019-04-07T09:36:37.493Z,11.18
2019-04-07T09:39:39.231Z,12.60
2019-04-07T09:42:33.520Z,13.62
2019-04-07T09:45:34.544Z,12.93
2019-04-07T09:48:25.708Z,12.00
2019-04-07T09:51:16.529Z,11.40
2019-04-07T09:53:57.602Z,12.05
2019-04-07T09:56:47.795Z,13.43
2019-04-07T09:59:32.808Z,13.43
2019-04-07T10:02:23.951Z,12.03
2019-04-07T10:05:17.385Z,10.48
2019-04-07T10:08:12.488Z,12.85
2019-04-07T10:11:11.911Z,12.93
2019-04-07T10:13:51.822Z,12.25
2019-04-07T10:16:39.452Z,12.20
2019-04-07T10:19:48.024Z,14.10
2019-04-07T10:22:44.121Z,13.70
2019-04-07T10:25:29.004Z,10.95
2019-04-07T10:28:08.880Z,10.18
2019-04-07T10:31:19.526Z,10.35
2019-04-07T10:34:08.232Z,10.98
2019-04-07T10:36:57.902Z,12.37
2019-04-07T10:40:02.756Z,12.53
2019-04-07T10:42:58.377Z,13.13
2019-04-07T10:45:46.882Z,13.35
2019-04-07T10:48:37.932Z,12.47
2019-04-07T10:51:43.301Z,10.58
2019-04-07T10:54:32.621Z,10.00
2019-04-07T10:57:14.383Z,11.78
2019-04-07T11:00:11.026Z,9.95
2019-04-07T11:02:56.872Z,9.43
2019-04-07T11:05:50.409Z,9.45
2019-04-07T11:08:41.094Z,9.05
2019-04-07T11:11:31.489Z,8.43
2019-04-07T11:14:11.307Z,9.28
2019-04-07T11:16:54.906Z,8.13
2019-04-07T11:19:40.807Z,8.55
2019-04-07T11:22:37.066Z,7.87
2019-04-07T11:25:16.433Z,9.38
2019-04-07T11:28:13.368Z,6.53
2019-04-07T11:31:19.633Z,5.35
2019-04-07T11:34:12.935Z,5.35
2019-04-07T11:36:49.893Z,5.05
2019-04-07T11:39:40.001Z,4.87
2019-04-07T11:42:19.718Z,4.50
2019-04-07T11:45:16.033Z,4.92
2019-04-07T11:47:55.817Z,4.50
2019-04-07T11:50:36.400Z,8.18
2019-04-07T11:53:27.500Z,4.85
2019-04-07T11:56:21.765Z,3.98
2019-04-07T11:59:18.449Z,4.72
2019-04-07T12:02:18.502Z,4.25
2019-04-07T12:05:06.430Z,4.50
2019-04-07T12:07:57.191Z,3.87
2019-04-07T12:10:39.867Z,3.95
2019-04-07T12:13:33.238Z,3.60
2019-04-07T12:16:17.667Z,4.08
2019-04-07T12:18:59.133Z,4.42
2019-04-07T12:21:49.476Z,3.90
2019-04-07T12:24:45.552Z,4.17
2019-04-07T12:27:40.636Z,4.20
2019-04-07T12:30:22.535Z,4.42
2019-04-07T12:33:05.010Z,4.30
2019-04-07T12:36:07.218Z,3.85
2019-04-07T12:38:49.992Z,3.63
2019-04-07T12:41:44.748Z,4.62
2019-04-07T12:44:31.401Z,3.90
2019-04-07T12:47:57.114Z,3.77
2019-04-07T12:51:19.510Z,4.15
2019-04-07T12:54:51.276Z,3.80
2019-04-07T12:57:58.563Z,3.62
2019-04-07T13:01:19.445Z,3.50
2019-04-07T13:05:02.892Z,3.77
2019-04-07T13:08:43.635Z,3.77
2019-04-07T13:11:50.345Z,3.70
2019-04-07T13:14:55.848Z,3.70
2019-04-07T13:18:03.595Z,3.70
2019-04-07T13:20:49.125Z,3.30
2019-04-07T13:23:36.962Z,3.40
2019-04-07T13:26:21.962Z,3.52
2019-04-07T13:29:22.450Z,3.27
2019-04-07T13:32:08.900Z,3.00
2019-04-07T13:34:57.977Z,3.30
2019-04-07T13:37:57.491Z,3.30
2019-04-07T13:40:51.825Z,3.70
2019-04-07T13:43:38.037Z,3.50
2019-04-07T13:46:33.900Z,3.42
2019-04-07T13:49:11.825Z,3.52
2019-04-07T13:52:11.807Z,3.87
2019-04-07T13:55:07.568Z,3.57
2019-04-07T13:58:09.700Z,3.52
2019-04-07T14:00:59.570Z,3.70
2019-04-07T14:03:50.401Z,3.57
2019-04-07T14:06:45.928Z,3.37
2019-04-07T14:09:35.352Z,3.70
2019-04-07T14:12:33.372Z,3.53
2019-04-07T14:15:36.982Z,3.20
2019-04-07T14:18:19.109Z,3.53
2019-04-07T14:21:00.885Z,4.00
2019-04-07T14:24:00.570Z,3.47
2019-04-07T14:26:43.533Z,3.93
2019-04-07T14:29:41.701Z,3.42
2019-04-07T14:32:49.416Z,4.03
2019-04-07T14:35:34.379Z,4.73
2019-04-07T14:38:27.542Z,4.60
2019-04-07T14:41:20.867Z,4.43
2019-04-07T14:44:14.043Z,5.57
2019-04-07T14:47:07.692Z,3.63
2019-04-07T14:49:57.252Z,3.63
2019-04-07T14:52:47.114Z,3.50
2019-04-07T14:55:39.957Z,3.70
2019-04-07T14:58:26.930Z,3.20
2019-04-07T15:01:10.780Z,3.90
2019-04-07T15:03:42.785Z,3.53
2019-04-07T15:06:15.341Z,3.80
2019-04-07T15:09:08.811Z,3.60
2019-04-07T15:11:51.188Z,3.47
2019-04-07T15:14:23.384Z,4.03
2019-04-07T15:16:55.752Z,3.30
2019-04-07T15:19:27.733Z,6.10
2019-04-07T15:22:01.871Z,3.57
2019-04-07T15:24:35.298Z,3.50
2019-04-07T15:27:06.785Z,3.83
2019-04-07T15:29:42.491Z,3.60
2019-04-07T15:32:12.697Z,3.50
2019-04-07T15:34:44.667Z,3.50
2019-04-07T15:37:19.305Z,3.40
2019-04-07T15:39:49.458Z,3.73
2019-04-07T15:42:33.208Z,3.70
2019-04-07T15:44:54.319Z,3.30
2019-04-07T15:47:26.586Z,3.40
2019-04-07T15:49:59.382Z,3.93
2019-04-07T15:52:31.963Z,7.27
2019-04-07T15:55:03.381Z,3.77
2019-04-07T15:57:35.087Z,3.70
2019-04-07T16:00:07.890Z,3.80
2019-04-07T16:02:42.194Z,3.57
2019-04-07T16:05:13.629Z,4.23
2019-04-07T16:07:44.983Z,3.63
2019-04-07T16:10:18.719Z,3.70
2019-04-07T16:12:52.220Z,3.70
2019-04-07T16:15:22.924Z,3.67
2019-04-07T16:17:55.566Z,3.23
2019-04-07T16:20:32.296Z,3.40
2019-04-07T16:23:00.292Z,3.33
2019-04-07T16:25:32.241Z,3.03
2019-04-07T16:28:03.638Z,3.00
2019-04-07T16:30:35.306Z,3.20
2019-04-07T16:33:06.539Z,3.83
2019-04-07T16:35:37.894Z,3.00
2019-04-07T16:38:09.975Z,2.97
2019-04-07T16:40:42.206Z,2.80
2019-04-07T16:43:16.750Z,3.23
2019-04-07T16:45:48.461Z,3.13
2019-04-07T16:48:20.867Z,3.10
2019-04-07T16:50:55.183Z,3.20
2019-04-07T16:53:25.906Z,2.70
2019-04-07T16:55:57.528Z,2.80
2019-04-07T16:58:33.143Z,2.90
2019-04-07T17:01:01.709Z,43.17
2019-04-07T17:03:33.372Z,3.37
2019-04-07T17:06:05.290Z,3.20
2019-04-07T17:08:36.638Z,3.10
2019-04-07T17:11:08.170Z,3.47
2019-04-07T17:13:41.777Z,3.03
2019-04-07T17:16:13.324Z,3.37
2019-04-07T17:18:45.049Z,3.73
2019-04-07T17:21:18.529Z,4.13
2019-04-07T17:23:53.185Z,4.23
2019-04-07T17:26:24.313Z,4.30
2019-04-07T17:28:56.941Z,4.07
2019-04-07T17:31:31.043Z,4.07
2019-04-07T17:34:04.950Z,4.70
2019-04-07T17:36:36.524Z,5.27
2019-04-07T17:39:43.947Z,6.03
2019-04-07T17:42:18.391Z,9.67
2019-04-07T17:45:11.604Z,6.00
2019-04-07T17:48:07.850Z,4.87
2019-04-07T17:51:01.073Z,4.90
2019-04-07T17:53:40.130Z,4.90
2019-04-07T17:56:22.169Z,5.00
2019-04-07T17:59:02.264Z,6.73
2019-04-07T18:02:04.829Z,5.40
2019-04-07T18:04:50.085Z,4.90
2019-04-07T18:07:44.037Z,5.23
2019-04-07T18:10:28.505Z,4.17
2019-04-07T18:13:27.089Z,4.50
2019-04-07T18:16:17.119Z,4.43
2019-04-07T18:19:25.168Z,4.53
2019-04-07T18:22:09.288Z,4.43
2019-04-07T18:24:54.935Z,4.87
2019-04-07T18:27:48.176Z,4.43
2019-04-07T18:30:40.745Z,4.03
2019-04-07T18:33:21.776Z,5.03
2019-04-07T18:36:15.905Z,4.70
2019-04-07T18:39:04.784Z,4.73
2019-04-07T18:41:53.960Z,4.33
2019-04-07T18:44:42.630Z,4.70
2019-04-07T18:47:27.416Z,4.20
2019-04-07T18:50:26.981Z,8.70
2019-04-07T18:53:14.904Z,5.33
2019-04-07T18:56:14.211Z,4.90
2019-04-07T18:58:57.889Z,5.17
2019-04-07T19:01:44.789Z,5.23
2019-04-07T19:04:50.130Z,4.97
2019-04-07T19:07:45.921Z,5.00
2019-04-07T19:10:31.149Z,5.13
2019-04-07T19:13:25.630Z,5.07
2019-04-07T19:16:15.504Z,4.80
2019-04-07T19:19:02.817Z,5.27
2019-04-07T19:21:48.441Z,5.30
2019-04-07T19:24:44.534Z,5.40
2019-04-07T19:27:37.483Z,5.10
2019-04-07T19:30:28.437Z,5.47
2019-04-07T19:33:12.107Z,5.30
2019-04-07T19:36:12.475Z,5.17
2019-04-07T19:39:23.530Z,5.13
2019-04-07T19:42:19.866Z,4.97
2019-04-07T19:45:07.649Z,6.00
2019-04-07T19:48:13.515Z,5.60
2019-04-07T19:51:03.761Z,4.93
2019-04-07T19:54:00.709Z,5.40
2019-04-07T19:56:50.942Z,5.93
2019-04-07T19:59:28.653Z,5.77
2019-04-07T20:02:17.928Z,5.20
2019-04-07T20:05:19.889Z,5.77
2019-04-07T20:08:05.627Z,5.63
2019-04-07T20:11:08.474Z,5.53
2019-04-07T20:13:57.243Z,6.47
2019-04-07T20:16:47.630Z,7.03
2019-04-07T20:19:44.943Z,6.47
2019-04-07T20:22:32.976Z,6.57
2019-04-07T20:25:28.098Z,6.17
2019-04-07T20:28:10.951Z,6.53
2019-04-07T20:30:51.743Z,6.43
2019-04-07T20:33:42.898Z,6.57
2019-04-07T20:36:32.060Z,5.70
2019-04-07T20:39:32.569Z,6.50
2019-04-07T20:42:13.458Z,6.60
2019-04-07T20:45:13.596Z,6.50
2019-04-07T20:47:59.252Z,6.70
2019-04-07T20:50:49.368Z,6.90
2019-04-07T20:53:39.558Z,8.33
2019-04-07T20:56:44.387Z,8.10
2019-04-07T20:59:47.012Z,8.40
2019-04-07T21:02:29.362Z,7.33
2019-04-07T21:05:21.865Z,7.47
2019-04-07T21:08:16.589Z,7.63
2019-04-07T21:11:06.616Z,8.63
2019-04-07T21:14:02.995Z,7.43
2019-04-07T21:16:53.040Z,8.63
2019-04-07T21:19:41.135Z,8.77
2019-04-07T21:22:18.609Z,8.93
2019-04-07T21:25:25.540Z,8.27
2019-04-07T21:28:08.044Z,8.17
2019-04-07T21:30:52.530Z,8.07
2019-04-07T21:33:47.568Z,8.57
2019-04-07T21:36:27.965Z,8.10
2019-04-07T21:39:10.504Z,8.90
2019-04-07T21:41:59.497Z,8.87
2019-04-07T21:44:48.815Z,8.53
2019-04-07T21:47:37.499Z,8.83
2019-04-07T21:50:31.562Z,8.20
2019-04-07T21:53:14.593Z,8.17
2019-04-07T21:56:01.795Z,8.67
2019-04-07T21:58:52.013Z,8.33
2019-04-07T22:01:43.308Z,8.80
2019-04-07T22:04:32.722Z,9.23
2019-04-07T22:07:21.696Z,9.63
2019-04-07T22:09:57.710Z,9.23
2019-04-07T22:12:30.352Z,9.60
2019-04-07T22:15:02.427Z,9.63
2019-04-07T22:17:36.764Z,9.03
2019-04-07T22:20:08.473Z,9.53
2019-04-07T22:22:40.770Z,10.77
2019-04-07T22:25:14.126Z,10.40
2019-04-07T22:27:46.231Z,10.23
2019-04-07T22:30:18.575Z,10.97
2019-04-07T22:32:51.294Z,10.13
2019-04-07T22:35:24.574Z,10.73
2019-04-07T22:37:55.950Z,10.20
2019-04-07T22:40:32.973Z,10.27
2019-04-07T22:43:01.912Z,10.40
2019-04-07T22:45:33.184Z,9.53
2019-04-07T22:48:08.158Z,8.87
2019-04-07T22:50:38.919Z,9.33
2019-04-07T22:53:11.595Z,8.77
2019-04-07T22:55:43.552Z,8.60
2019-04-07T22:58:15.926Z,7.97
2019-04-07T23:00:47.378Z,8.97
2019-04-07T23:03:19.460Z,9.33
2019-04-07T23:05:51.408Z,8.53
2019-04-07T23:08:22.718Z,10.00
2019-04-07T23:10:54.079Z,10.40
2019-04-07T23:13:26.180Z,10.10
2019-04-07T23:16:09.001Z,10.03
2019-04-07T23:18:31.690Z,9.83
2019-04-07T23:21:03.745Z,7.93
2019-04-07T23:23:34.941Z,9.13
2019-04-07T23:26:07.507Z,8.53
2019-04-07T23:28:39.122Z,10.03
2019-04-07T23:31:11.697Z,9.47
2019-04-07T23:33:43.813Z,9.40
2019-04-07T23:36:15.980Z,9.53
2019-04-07T23:38:47.497Z,10.47
2019-04-07T23:41:18.849Z,10.33
2019-04-07T23:43:50.614Z,10.13
2019-04-07T23:46:25.063Z,10.93
2019-04-07T23:48:56.083Z,10.43
2019-04-07T23:51:28.722Z,10.07
2019-04-07T23:54:11.377Z,9.73
2019-04-07T23:56:45.531Z,9.23
2019-04-07T23:59:17.026Z,9.73
